| Date | Time | Temp. (oF) | Dew Point (oF) | Rel. Hum. (%) | Press. (in.) | Wind Dir. | Wind Speed (mph) | Hourly Rainfall (in.) |
|
|---|---|---|---|---|---|---|---|---|---|
| 1 | 03/02 | 00:00 | 29 | 28 | 97 | 30.14 | SSW | 1 | 0.00 |
| 2 | 03/01 | 23:00 | 29 | 28 | 97 | 30.17 | SW | 1 | 0.00 |
| 3 | 03/01 | 22:00 | 29 | 28 | 97 | 30.20 | SW | 3 | 0.00 |
| 4 | 03/01 | 21:00 | 29 | 28 | 97 | 30.21 | S | 4 | 0.00 |
| 5 | 03/01 | 20:00 | 29 | 28 | 97 | 30.25 | E | 1 | 0.00 |
| 6 | 03/01 | 19:00 | 29 | 28 | 97 | 30.27 | SSE | 3 | 0.03 |
| 7 | 03/01 | 18:00 | 28 | 27 | 97 | 30.29 | S | 6 | 0.03 |
| 8 | 03/01 | 17:00 | 28 | 27 | 97 | 30.31 | S | 3 | 0.04 |
| 9 | 03/01 | 16:00 | 27 | 26 | 96 | 30.35 | S | 4 | 0.06 |
| 10 | 03/01 | 15:00 | 27 | 25 | 94 | 30.39 | SSW | 0 | 0.05 |
| 11 | 03/01 | 14:00 | 25 | 23 | 93 | 30.42 | S | 2 | 0.04 |
| 12 | 03/01 | 13:00 | 23 | 21 | 94 | 30.49 | S | 3 | 0.05 |
| 13 | 03/01 | 12:00 | 23 | 20 | 91 | 30.53 | S | 9 | 0.00 |
| 14 | 03/01 | 11:00 | 22 | 19 | 89 | 30.56 | S | 7 | 0.00 |
| 15 | 03/01 | 10:00 | 22 | 17 | 84 | 30.58 | S | 4 | 0.00 |
| 16 | 03/01 | 09:00 | 22 | 14 | 71 | 30.60 | SSW | 6 | 0.00 |
| 17 | 03/01 | 08:00 | 22 | 10 | 61 | 30.61 | S | 3 | 0.00 |
| 18 | 03/01 | 07:00 | 21 | 13 | 71 | 30.62 | SSW | 3 | 0.00 |
| 19 | 03/01 | 06:00 | 21 | 12 | 70 | 30.63 | E | 0 | 0.00 |
| 20 | 03/01 | 05:00 | 20 | 12 | 73 | 30.64 | E | 0 | 0.00 |
| 21 | 03/01 | 04:00 | 19 | 11 | 72 | 30.66 | E | 0 | 0.00 |
| 22 | 03/01 | 03:00 | 17 | 11 | 78 | 30.68 | S | 0 | 0.00 |
| 23 | 03/01 | 02:00 | 14 | 9 | 82 | 30.69 | NE | 0 | 0.00 |
| 24 | 03/01 | 01:00 | 15 | 9 | 77 | 30.71 | WNW | 0 | 0.00 |